MEL weather

Melbourne International Airport
Melbourne, Victoria, Australia

Public forecast

Using degrees Celsius for public forecast. Weather courtesy of forecast.io.

METAR (pilot weather report)

Retrieved 2018/07/20 19:30 UTC (1 minute ago):

YMML 201930Z 33005KT 9999 BKN037 07/03 Q1020 NOSIG

TAF (pilot weather forecast)

Retrieved 2018/07/20 18:00 UTC (2 hours ago):

TAF YMML 201734Z 2018/2124 35010KT CAVOK FM202100 31010KT 9999 SCT040 BECMG 2107/2109 35009KT CAVOK FM211600 36014KT CAVOK FM212100 36017G30KT CAVOK